sensor_id;sensor_type;location;lat;lon;timestamp;pressure;altitude;pressure_sealevel;temperature;humidity
51067;BME280;37112;45.892;-123.962;2023-06-04T00:00:21;102112.20;;;17.48;66.47
51067;BME280;37112;45.892;-123.962;2023-06-04T00:03:03;102113.02;;;17.52;64.56
51067;BME280;37112;45.892;-123.962;2023-06-04T00:05:26;102111.27;;;17.40;64.43
51067;BME280;37112;45.892;-123.962;2023-06-04T00:07:57;102111.16;;;17.26;64.63
51067;BME280;37112;45.892;-123.962;2023-06-04T00:10:28;102115.11;;;17.21;65.28
51067;BME280;37112;45.892;-123.962;2023-06-04T00:12:59;102112.48;;;17.29;65.60
51067;BME280;37112;45.892;-123.962;2023-06-04T00:15:31;102115.88;;;17.26;65.22
51067;BME280;37112;45.892;-123.962;2023-06-04T00:17:50;102113.30;;;17.22;65.36
51067;BME280;37112;45.892;-123.962;2023-06-04T00:20:14;102116.01;;;17.19;65.78
51067;BME280;37112;45.892;-123.962;2023-06-04T00:22:45;102110.14;;;17.18;64.96
51067;BME280;37112;45.892;-123.962;2023-06-04T00:25:10;102112.32;;;17.21;65.58
51067;BME280;37112;45.892;-123.962;2023-06-04T00:27:41;102115.84;;;17.19;65.09
51067;BME280;37112;45.892;-123.962;2023-06-04T00:30:14;102114.16;;;17.10;65.38
51067;BME280;37112;45.892;-123.962;2023-06-04T00:32:30;102112.88;;;17.03;66.01
51067;BME280;37112;45.892;-123.962;2023-06-04T00:35:02;102107.05;;;16.87;65.63
51067;BME280;37112;45.892;-123.962;2023-06-04T00:37:32;102107.50;;;16.73;66.75
51067;BME280;37112;45.892;-123.962;2023-06-04T00:40:03;102105.80;;;16.56;66.48
51067;BME280;37112;45.892;-123.962;2023-06-04T00:42:26;102106.83;;;16.39;66.98
51067;BME280;37112;45.892;-123.962;2023-06-04T00:44:45;102112.27;;;16.28;67.63
51067;BME280;37112;45.892;-123.962;2023-06-04T00:47:02;102110.12;;;16.25;67.71
51067;BME280;37112;45.892;-123.962;2023-06-04T00:49:33;102111.34;;;16.26;68.03
51067;BME280;37112;45.892;-123.962;2023-06-04T00:51:56;102115.39;;;16.17;67.27
51067;BME280;37112;45.892;-123.962;2023-06-04T00:54:19;102110.91;;;16.09;67.99
51067;BME280;37112;45.892;-123.962;2023-06-04T00:56:43;102110.30;;;16.15;68.49
51067;BME280;37112;45.892;-123.962;2023-06-04T00:59:14;102106.90;;;16.23;67.62
51067;BME280;37112;45.892;-123.962;2023-06-04T01:01:46;102108.95;;;16.27;67.93
51067;BME280;37112;45.892;-123.962;2023-06-04T01:04:12;102111.34;;;16.33;67.49
51067;BME280;37112;45.892;-123.962;2023-06-04T01:06:36;102111.31;;;16.41;67.77
51067;BME280;37112;45.892;-123.962;2023-06-04T01:09:04;102117.30;;;16.54;66.61
51067;BME280;37112;45.892;-123.962;2023-06-04T01:11:33;102120.55;;;16.56;66.75
51067;BME280;37112;45.892;-123.962;2023-06-04T01:13:55;102116.23;;;16.69;66.27
51067;BME280;37112;45.892;-123.962;2023-06-04T01:16:20;102116.59;;;16.63;63.83
51067;BME280;37112;45.892;-123.962;2023-06-04T01:18:44;102114.70;;;16.52;64.47
51067;BME280;37112;45.892;-123.962;2023-06-04T01:21:16;102119.61;;;16.52;64.75
51067;BME280;37112;45.892;-123.962;2023-06-04T01:23:49;102114.17;;;16.60;64.88
51067;BME280;37112;45.892;-123.962;2023-06-04T01:26:21;102124.04;;;16.70;64.64
51067;BME280;37112;45.892;-123.962;2023-06-04T01:28:45;102132.17;;;16.66;63.27
51067;BME280;37112;45.892;-123.962;2023-06-04T01:31:15;102130.41;;;16.58;63.34
51067;BME280;37112;45.892;-123.962;2023-06-04T01:33:35;102132.63;;;16.60;63.49
51067;BME280;37112;45.892;-123.962;2023-06-04T01:36:05;102137.09;;;16.53;63.15
51067;BME280;37112;45.892;-123.962;2023-06-04T01:38:38;102142.92;;;16.28;62.98
51067;BME280;37112;45.892;-123.962;2023-06-04T01:41:03;102144.36;;;16.12;63.21
51067;BME280;37112;45.892;-123.962;2023-06-04T01:43:26;102146.38;;;15.88;63.38
51067;BME280;37112;45.892;-123.962;2023-06-04T01:45:57;102141.72;;;15.67;64.17
51067;BME280;37112;45.892;-123.962;2023-06-04T01:48:13;102143.52;;;15.60;64.93
51067;BME280;37112;45.892;-123.962;2023-06-04T01:50:34;102142.58;;;15.55;65.14
51067;BME280;37112;45.892;-123.962;2023-06-04T01:53:05;102148.67;;;15.55;65.59
51067;BME280;37112;45.892;-123.962;2023-06-04T01:55:36;102150.63;;;15.53;65.23
51067;BME280;37112;45.892;-123.962;2023-06-04T01:57:53;102152.06;;;15.47;65.37
51067;BME280;37112;45.892;-123.962;2023-06-04T02:00:24;102149.36;;;15.51;65.31
51067;BME280;37112;45.892;-123.962;2023-06-04T02:02:48;102154.59;;;15.55;65.81
51067;BME280;37112;45.892;-123.962;2023-06-04T02:05:14;102159.69;;;15.68;65.14
51067;BME280;37112;45.892;-123.962;2023-06-04T02:07:38;102159.52;;;15.76;64.97
51067;BME280;37112;45.892;-123.962;2023-06-04T02:10:05;102163.65;;;15.81;64.77
51067;BME280;37112;45.892;-123.962;2023-06-04T02:12:22;102163.84;;;15.84;64.32
51067;BME280;37112;45.892;-123.962;2023-06-04T02:14:54;102166.02;;;15.92;64.72
51067;BME280;37112;45.892;-123.962;2023-06-04T02:17:25;102167.70;;;16.01;63.98
51067;BME280;37112;45.892;-123.962;2023-06-04T02:19:53;102172.56;;;16.06;63.99
51067;BME280;37112;45.892;-123.962;2023-06-04T02:22:15;102173.86;;;16.03;63.22
51067;BME280;37112;45.892;-123.962;2023-06-04T02:24:47;102176.70;;;15.98;63.16
51067;BME280;37112;45.892;-123.962;2023-06-04T02:26:59;102177.81;;;15.92;61.98
51067;BME280;37112;45.892;-123.962;2023-06-04T02:29:24;102184.72;;;15.79;62.41
51067;BME280;37112;45.892;-123.962;2023-06-04T02:31:46;102185.89;;;15.75;63.06
51067;BME280;37112;45.892;-123.962;2023-06-04T02:34:02;102187.44;;;15.82;63.48
51067;BME280;37112;45.892;-123.962;2023-06-04T02:36:34;102186.95;;;15.92;63.42
51067;BME280;37112;45.892;-123.962;2023-06-04T02:38:45;102191.18;;;15.96;63.22
51067;BME280;37112;45.892;-123.962;2023-06-04T02:41:17;102186.59;;;15.89;62.69
51067;BME280;37112;45.892;-123.962;2023-06-04T02:43:50;102193.20;;;15.78;62.41
51067;BME280;37112;45.892;-123.962;2023-06-04T02:46:17;102195.95;;;15.70;62.08
51067;BME280;37112;45.892;-123.962;2023-06-04T02:48:29;102197.41;;;15.61;62.10
51067;BME280;37112;45.892;-123.962;2023-06-04T02:50:53;102198.29;;;15.44;62.21
51067;BME280;37112;45.892;-123.962;2023-06-04T02:53:09;102201.95;;;15.37;62.85
51067;BME280;37112;45.892;-123.962;2023-06-04T02:55:29;102202.92;;;15.34;62.90
51067;BME280;37112;45.892;-123.962;2023-06-04T02:57:41;102204.52;;;15.30;63.21
51067;BME280;37112;45.892;-123.962;2023-06-04T03:00:14;102207.38;;;15.30;63.19
51067;BME280;37112;45.892;-123.962;2023-06-04T03:02:29;102209.29;;;15.26;63.08
51067;BME280;37112;45.892;-123.962;2023-06-04T03:04:58;102218.52;;;15.21;63.34
51067;BME280;37112;45.892;-123.962;2023-06-04T03:07:34;102220.14;;;15.21;63.63
51067;BME280;37112;45.892;-123.962;2023-06-04T03:09:55;102215.81;;;15.19;63.67
51067;BME280;37112;45.892;-123.962;2023-06-04T03:12:16;102221.13;;;15.20;63.92
51067;BME280;37112;45.892;-123.962;2023-06-04T03:14:30;102222.42;;;15.25;64.02
51067;BME280;37112;45.892;-123.962;2023-06-04T03:17:19;102230.90;;;15.24;63.47
51067;BME280;37112;45.892;-123.962;2023-06-04T03:19:42;102224.92;;;15.14;63.26
51067;BME280;37112;45.892;-123.962;2023-06-04T03:22:11;102229.45;;;15.04;63.40
51067;BME280;37112;45.892;-123.962;2023-06-04T03:24:23;102225.39;;;14.95;63.62
51067;BME280;37112;45.892;-123.962;2023-06-04T03:26:40;102228.77;;;14.92;63.89
51067;BME280;37112;45.892;-123.962;2023-06-04T03:29:04;102233.15;;;14.88;64.06
51067;BME280;37112;45.892;-123.962;2023-06-04T03:31:35;102230.15;;;14.79;63.83
51067;BME280;37112;45.892;-123.962;2023-06-04T03:33:51;102230.07;;;14.65;63.92
51067;BME280;37112;45.892;-123.962;2023-06-04T03:36:11;102228.52;;;14.53;63.91
51067;BME280;37112;45.892;-123.962;2023-06-04T03:38:27;102228.35;;;14.43;64.29
51067;BME280;37112;45.892;-123.962;2023-06-04T03:40:48;102232.40;;;14.32;64.42
51067;BME280;37112;45.892;-123.962;2023-06-04T03:43:22;102232.52;;;14.20;64.59
51067;BME280;37112;45.892;-123.962;2023-06-04T03:45:48;102232.58;;;14.11;64.70
51067;BME280;37112;45.892;-123.962;2023-06-04T03:48:01;102232.76;;;14.01;64.87
51067;BME280;37112;45.892;-123.962;2023-06-04T03:50:17;102236.30;;;13.93;65.00
51067;BME280;37112;45.892;-123.962;2023-06-04T03:52:37;102235.50;;;13.85;65.21
51067;BME280;37112;45.892;-123.962;2023-06-04T03:54:49;102235.06;;;13.80;65.39
51067;BME280;37112;45.892;-123.962;2023-06-04T03:57:07;102231.96;;;13.72;65.76
51067;BME280;37112;45.892;-123.962;2023-06-04T03:59:21;102237.82;;;13.66;65.72
51067;BME280;37112;45.892;-123.962;2023-06-04T04:01:52;102233.53;;;13.59;66.04
51067;BME280;37112;45.892;-123.962;2023-06-04T04:04:16;102238.00;;;13.53;66.26
51067;BME280;37112;45.892;-123.962;2023-06-04T04:06:33;102235.63;;;13.48;66.35
51067;BME280;37112;45.892;-123.962;2023-06-04T04:08:52;102234.87;;;13.45;66.45
51067;BME280;37112;45.892;-123.962;2023-06-04T04:11:24;102238.20;;;13.43;66.61
51067;BME280;37112;45.892;-123.962;2023-06-04T04:13:38;102234.41;;;13.41;66.64
51067;BME280;37112;45.892;-123.962;2023-06-04T04:16:01;102237.48;;;13.37;66.74
51067;BME280;37112;45.892;-123.962;2023-06-04T04:18:25;102234.02;;;13.32;66.84
51067;BME280;37112;45.892;-123.962;2023-06-04T04:20:40;102232.40;;;13.28;66.94
51067;BME280;37112;45.892;-123.962;2023-06-04T04:23:17;102236.63;;;13.27;67.12
51067;BME280;37112;45.892;-123.962;2023-06-04T04:25:34;102242.14;;;13.23;67.24
51067;BME280;37112;45.892;-123.962;2023-06-04T04:27:57;102240.14;;;13.21;67.38
51067;BME280;37112;45.892;-123.962;2023-06-04T04:30:15;102244.28;;;13.20;67.33
51067;BME280;37112;45.892;-123.962;2023-06-04T04:32:29;102247.43;;;13.21;67.46
51067;BME280;37112;45.892;-123.962;2023-06-04T04:34:49;102250.63;;;13.21;67.47
51067;BME280;37112;45.892;-123.962;2023-06-04T04:37:10;102255.31;;;13.21;67.54
51067;BME280;37112;45.892;-123.962;2023-06-04T04:39:25;102257.33;;;13.20;67.55
51067;BME280;37112;45.892;-123.962;2023-06-04T04:41:46;102259.14;;;13.19;67.68
51067;BME280;37112;45.892;-123.962;2023-06-04T04:44:08;102260.04;;;13.19;67.67
51067;BME280;37112;45.892;-123.962;2023-06-04T04:46:22;102262.29;;;13.17;67.71
51067;BME280;37112;45.892;-123.962;2023-06-04T04:48:38;102267.73;;;13.15;67.70
51067;BME280;37112;45.892;-123.962;2023-06-04T04:51:11;102275.25;;;13.14;67.99
51067;BME280;37112;45.892;-123.962;2023-06-04T04:53:25;102272.85;;;13.12;68.10
51067;BME280;37112;45.892;-123.962;2023-06-04T04:55:50;102273.27;;;13.11;68.25
51067;BME280;37112;45.892;-123.962;2023-06-04T04:58:08;102275.08;;;13.11;68.27
51067;BME280;37112;45.892;-123.962;2023-06-04T05:00:23;102274.38;;;13.10;68.28
51067;BME280;37112;45.892;-123.962;2023-06-04T05:02:37;102276.95;;;13.09;68.25
51067;BME280;37112;45.892;-123.962;2023-06-04T05:04:53;102273.13;;;13.07;68.29
51067;BME280;37112;45.892;-123.962;2023-06-04T05:07:08;102274.79;;;13.03;68.30
51067;BME280;37112;45.892;-123.962;2023-06-04T05:09:36;102272.81;;;13.00;68.30
51067;BME280;37112;45.892;-123.962;2023-06-04T05:11:55;102274.17;;;12.97;68.29
51067;BME280;37112;45.892;-123.962;2023-06-04T05:14:17;102271.11;;;12.95;68.28
51067;BME280;37112;45.892;-123.962;2023-06-04T05:16:31;102270.08;;;12.91;68.30
51067;BME280;37112;45.892;-123.962;2023-06-04T05:18:48;102268.77;;;12.88;68.47
51067;BME280;37112;45.892;-123.962;2023-06-04T05:21:10;102268.75;;;12.86;68.39
51067;BME280;37112;45.892;-123.962;2023-06-04T05:23:31;102269.02;;;12.84;68.43
51067;BME280;37112;45.892;-123.962;2023-06-04T05:26:00;102265.34;;;12.82;68.49
51067;BME280;37112;45.892;-123.962;2023-06-04T05:28:32;102269.35;;;12.81;68.55
51067;BME280;37112;45.892;-123.962;2023-06-04T05:31:04;102270.70;;;12.79;68.57
51067;BME280;37112;45.892;-123.962;2023-06-04T05:33:29;102270.41;;;12.78;68.63
51067;BME280;37112;45.892;-123.962;2023-06-04T05:36:02;102271.09;;;12.74;68.57
51067;BME280;37112;45.892;-123.962;2023-06-04T05:38:31;102267.72;;;12.71;68.72
51067;BME280;37112;45.892;-123.962;2023-06-04T05:40:53;102268.53;;;12.69;68.68
51067;BME280;37112;45.892;-123.962;2023-06-04T05:43:14;102267.87;;;12.68;68.74
51067;BME280;37112;45.892;-123.962;2023-06-04T05:45:33;102270.40;;;12.67;68.72
51067;BME280;37112;45.892;-123.962;2023-06-04T05:47:45;102274.25;;;12.65;68.75
51067;BME280;37112;45.892;-123.962;2023-06-04T05:50:08;102273.48;;;12.64;68.76
51067;BME280;37112;45.892;-123.962;2023-06-04T05:52:40;102276.65;;;12.61;68.82
51067;BME280;37112;45.892;-123.962;2023-06-04T05:55:01;102277.59;;;12.59;68.85
51067;BME280;37112;45.892;-123.962;2023-06-04T05:57:30;102276.83;;;12.57;68.87
51067;BME280;37112;45.892;-123.962;2023-06-04T05:59:42;102276.95;;;12.54;69.01
51067;BME280;37112;45.892;-123.962;2023-06-04T06:02:15;102281.23;;;12.54;69.01
51067;BME280;37112;45.892;-123.962;2023-06-04T06:04:38;102278.95;;;12.54;68.88
51067;BME280;37112;45.892;-123.962;2023-06-04T06:07:10;102279.70;;;12.53;69.02
51067;BME280;37112;45.892;-123.962;2023-06-04T06:09:41;102284.04;;;12.51;69.01
51067;BME280;37112;45.892;-123.962;2023-06-04T06:12:12;102289.92;;;12.51;68.99
51067;BME280;37112;45.892;-123.962;2023-06-04T06:14:45;102286.33;;;12.49;68.90
51067;BME280;37112;45.892;-123.962;2023-06-04T06:16:59;102287.62;;;12.48;68.91
51067;BME280;37112;45.892;-123.962;2023-06-04T06:19:17;102287.50;;;12.47;69.01
51067;BME280;37112;45.892;-123.962;2023-06-04T06:21:39;102287.41;;;12.45;69.09
51067;BME280;37112;45.892;-123.962;2023-06-04T06:24:05;102291.27;;;12.43;69.10
51067;BME280;37112;45.892;-123.962;2023-06-04T06:26:17;102295.28;;;12.41;69.09
51067;BME280;37112;45.892;-123.962;2023-06-04T06:28:44;102295.73;;;12.40;69.20
51067;BME280;37112;45.892;-123.962;2023-06-04T06:31:15;102296.12;;;12.39;69.21
51067;BME280;37112;45.892;-123.962;2023-06-04T06:33:44;102297.95;;;12.37;69.20
51067;BME280;37112;45.892;-123.962;2023-06-04T06:36:14;102296.80;;;12.36;69.27
51067;BME280;37112;45.892;-123.962;2023-06-04T06:38:48;102297.50;;;12.32;69.27
51067;BME280;37112;45.892;-123.962;2023-06-04T06:41:09;102299.61;;;12.29;69.27
51067;BME280;37112;45.892;-123.962;2023-06-04T06:43:40;102299.77;;;12.25;69.28
51067;BME280;37112;45.892;-123.962;2023-06-04T06:46:04;102301.81;;;12.24;69.30
51067;BME280;37112;45.892;-123.962;2023-06-04T06:48:35;102304.36;;;12.23;69.45
51067;BME280;37112;45.892;-123.962;2023-06-04T06:51:07;102305.02;;;12.24;69.46
51067;BME280;37112;45.892;-123.962;2023-06-04T06:53:39;102306.36;;;12.22;69.31
51067;BME280;37112;45.892;-123.962;2023-06-04T06:55:59;102305.05;;;12.20;69.26
51067;BME280;37112;45.892;-123.962;2023-06-04T06:58:32;102303.80;;;12.16;69.13
51067;BME280;37112;45.892;-123.962;2023-06-04T07:00:57;102303.89;;;12.15;69.22
51067;BME280;37112;45.892;-123.962;2023-06-04T07:03:29;102306.16;;;12.12;69.14
51067;BME280;37112;45.892;-123.962;2023-06-04T07:06:01;102305.33;;;12.07;69.14
51067;BME280;37112;45.892;-123.962;2023-06-04T07:08:25;102306.89;;;12.04;69.20
51067;BME280;37112;45.892;-123.962;2023-06-04T07:10:57;102307.99;;;12.00;69.12
51067;BME280;37112;45.892;-123.962;2023-06-04T07:13:30;102308.13;;;11.96;69.23
51067;BME280;37112;45.892;-123.962;2023-06-04T07:16:04;102314.55;;;11.93;69.22
51067;BME280;37112;45.892;-123.962;2023-06-04T07:18:29;102313.55;;;11.87;69.19
51067;BME280;37112;45.892;-123.962;2023-06-04T07:20:48;102312.52;;;11.83;69.20
51067;BME280;37112;45.892;-123.962;2023-06-04T07:23:25;102311.95;;;11.76;69.16
51067;BME280;37112;45.892;-123.962;2023-06-04T07:25:56;102315.48;;;11.69;69.11
51067;BME280;37112;45.892;-123.962;2023-06-04T07:28:19;102318.31;;;11.62;69.11
51067;BME280;37112;45.892;-123.962;2023-06-04T07:30:44;102320.20;;;11.56;69.17
51067;BME280;37112;45.892;-123.962;2023-06-04T07:33:10;102318.61;;;11.48;69.10
51067;BME280;37112;45.892;-123.962;2023-06-04T07:35:29;102323.81;;;11.42;69.24
51067;BME280;37112;45.892;-123.962;2023-06-04T07:38:01;102322.61;;;11.38;69.36
51067;BME280;37112;45.892;-123.962;2023-06-04T07:40:31;102325.52;;;11.32;69.44
51067;BME280;37112;45.892;-123.962;2023-06-04T07:42:52;102326.23;;;11.28;69.47
51067;BME280;37112;45.892;-123.962;2023-06-04T07:45:13;102324.06;;;11.25;69.68
51067;BME280;37112;45.892;-123.962;2023-06-04T07:47:44;102322.27;;;11.22;69.59
51067;BME280;37112;45.892;-123.962;2023-06-04T07:50:16;102319.77;;;11.18;69.70
51067;BME280;37112;45.892;-123.962;2023-06-04T07:52:47;102320.17;;;11.13;69.69
51067;BME280;37112;45.892;-123.962;2023-06-04T07:55:11;102321.82;;;11.08;69.67
51067;BME280;37112;45.892;-123.962;2023-06-04T07:57:42;102319.40;;;11.02;69.73
51067;BME280;37112;45.892;-123.962;2023-06-04T08:00:02;102315.95;;;10.96;69.82
51067;BME280;37112;45.892;-123.962;2023-06-04T08:02:20;102319.54;;;10.91;69.71
51067;BME280;37112;45.892;-123.962;2023-06-04T08:04:51;102318.71;;;10.85;69.88
51067;BME280;37112;45.892;-123.962;2023-06-04T08:07:16;102318.52;;;10.81;69.98
51067;BME280;37112;45.892;-123.962;2023-06-04T08:09:47;102317.88;;;10.80;70.24
51067;BME280;37112;45.892;-123.962;2023-06-04T08:12:19;102318.80;;;10.79;70.46
51067;BME280;37112;45.892;-123.962;2023-06-04T08:14:43;102319.05;;;10.77;70.66
51067;BME280;37112;45.892;-123.962;2023-06-04T08:17:04;102314.31;;;10.76;70.78
51067;BME280;37112;45.892;-123.962;2023-06-04T08:19:36;102316.59;;;10.72;70.79
51067;BME280;37112;45.892;-123.962;2023-06-04T08:22:08;102315.77;;;10.67;70.80
51067;BME280;37112;45.892;-123.962;2023-06-04T08:24:38;102315.98;;;10.62;70.95
51067;BME280;37112;45.892;-123.962;2023-06-04T08:27:10;102314.48;;;10.59;71.04
51067;BME280;37112;45.892;-123.962;2023-06-04T08:29:40;102317.49;;;10.55;71.16
51067;BME280;37112;45.892;-123.962;2023-06-04T08:32:11;102313.05;;;10.51;71.23
51067;BME280;37112;45.892;-123.962;2023-06-04T08:34:42;102316.40;;;10.48;71.44
51067;BME280;37112;45.892;-123.962;2023-06-04T08:37:13;102314.27;;;10.43;71.46
51067;BME280;37112;45.892;-123.962;2023-06-04T08:39:45;102317.91;;;10.41;71.81
51067;BME280;37112;45.892;-123.962;2023-06-04T08:42:17;102318.89;;;10.39;71.80
51067;BME280;37112;45.892;-123.962;2023-06-04T08:44:46;102317.50;;;10.38;72.01
51067;BME280;37112;45.892;-123.962;2023-06-04T08:47:17;102315.29;;;10.36;72.12
51067;BME280;37112;45.892;-123.962;2023-06-04T08:49:50;102318.52;;;10.36;72.22
51067;BME280;37112;45.892;-123.962;2023-06-04T08:52:23;102317.17;;;10.33;72.35
51067;BME280;37112;45.892;-123.962;2023-06-04T08:54:54;102320.02;;;10.33;72.47
51067;BME280;37112;45.892;-123.962;2023-06-04T08:57:26;102320.45;;;10.31;72.48
51067;BME280;37112;45.892;-123.962;2023-06-04T08:59:57;102322.39;;;10.27;72.68
51067;BME280;37112;45.892;-123.962;2023-06-04T09:02:17;102322.34;;;10.24;72.58
51067;BME280;37112;45.892;-123.962;2023-06-04T09:04:48;102324.52;;;10.22;72.86
51067;BME280;37112;45.892;-123.962;2023-06-04T09:07:13;102328.14;;;10.20;72.81
51067;BME280;37112;45.892;-123.962;2023-06-04T09:09:45;102328.98;;;10.17;72.72
51067;BME280;37112;45.892;-123.962;2023-06-04T09:12:38;102326.66;;;10.13;72.85
51067;BME280;37112;45.892;-123.962;2023-06-04T09:15:11;102331.58;;;10.10;72.91
51067;BME280;37112;45.892;-123.962;2023-06-04T09:17:35;102329.38;;;10.07;73.15
51067;BME280;37112;45.892;-123.962;2023-06-04T09:20:08;102329.30;;;10.05;73.19
51067;BME280;37112;45.892;-123.962;2023-06-04T09:22:46;102333.36;;;10.00;73.03
51067;BME280;37112;45.892;-123.962;2023-06-04T09:25:18;102332.23;;;9.98;73.17
51067;BME280;37112;45.892;-123.962;2023-06-04T09:27:53;102332.48;;;9.96;73.40
51067;BME280;37112;45.892;-123.962;2023-06-04T09:30:23;102331.52;;;9.93;73.45
51067;BME280;37112;45.892;-123.962;2023-06-04T09:33:05;102329.83;;;9.91;73.47
51067;BME280;37112;45.892;-123.962;2023-06-04T09:35:37;102331.98;;;9.91;73.48
51067;BME280;37112;45.892;-123.962;2023-06-04T09:38:04;102327.83;;;9.88;73.53
51067;BME280;37112;45.892;-123.962;2023-06-04T09:40:38;102331.80;;;9.86;73.55
51067;BME280;37112;45.892;-123.962;2023-06-04T09:43:04;102334.98;;;9.83;73.64
51067;BME280;37112;45.892;-123.962;2023-06-04T09:45:37;102331.85;;;9.81;73.90
51067;BME280;37112;45.892;-123.962;2023-06-04T09:48:02;102332.95;;;9.79;74.02
51067;BME280;37112;45.892;-123.962;2023-06-04T09:50:29;102335.84;;;9.78;74.14
51067;BME280;37112;45.892;-123.962;2023-06-04T09:53:12;102334.25;;;9.74;73.96
51067;BME280;37112;45.892;-123.962;2023-06-04T09:55:43;102337.92;;;9.70;74.11
51067;BME280;37112;45.892;-123.962;2023-06-04T09:58:15;102338.38;;;9.67;74.28
51067;BME280;37112;45.892;-123.962;2023-06-04T10:00:47;102336.16;;;9.65;74.40
51067;BME280;37112;45.892;-123.962;2023-06-04T10:02:58;102336.92;;;9.63;74.41
51067;BME280;37112;45.892;-123.962;2023-06-04T10:05:32;102338.05;;;9.62;74.72
51067;BME280;37112;45.892;-123.962;2023-06-04T10:07:57;102337.54;;;9.61;74.88
51067;BME280;37112;45.892;-123.962;2023-06-04T10:10:25;102336.83;;;9.61;75.03
51067;BME280;37112;45.892;-123.962;2023-06-04T10:13:01;102336.48;;;9.61;75.18
51067;BME280;37112;45.892;-123.962;2023-06-04T10:15:35;102335.77;;;9.61;75.27
51067;BME280;37112;45.892;-123.962;2023-06-04T10:18:00;102337.57;;;9.61;75.41
51067;BME280;37112;45.892;-123.962;2023-06-04T10:20:32;102331.74;;;9.60;75.48
51067;BME280;37112;45.892;-123.962;2023-06-04T10:22:52;102335.86;;;9.59;75.52
51067;BME280;37112;45.892;-123.962;2023-06-04T10:25:24;102336.81;;;9.58;75.56
51067;BME280;37112;45.892;-123.962;2023-06-04T10:27:57;102340.17;;;9.58;75.67
51067;BME280;37112;45.892;-123.962;2023-06-04T10:30:29;102339.47;;;9.58;75.77
51067;BME280;37112;45.892;-123.962;2023-06-04T10:33:00;102337.51;;;9.58;75.89
51067;BME280;37112;45.892;-123.962;2023-06-04T10:35:32;102341.79;;;9.57;75.91
51067;BME280;37112;45.892;-123.962;2023-06-04T10:38:09;102345.33;;;9.57;76.24
51067;BME280;37112;45.892;-123.962;2023-06-04T10:40:35;102341.04;;;9.59;76.26
51067;BME280;37112;45.892;-123.962;2023-06-04T10:43:03;102344.31;;;9.60;76.67
51067;BME280;37112;45.892;-123.962;2023-06-04T10:45:35;102343.12;;;9.64;76.78
51067;BME280;37112;45.892;-123.962;2023-06-04T10:48:02;102339.71;;;9.65;76.73
51067;BME280;37112;45.892;-123.962;2023-06-04T10:50:22;102343.60;;;9.66;76.74
51067;BME280;37112;45.892;-123.962;2023-06-04T10:52:54;102343.48;;;9.68;76.92
51067;BME280;37112;45.892;-123.962;2023-06-04T10:55:26;102343.44;;;9.69;76.94
51067;BME280;37112;45.892;-123.962;2023-06-04T10:57:58;102341.80;;;9.70;77.21
51067;BME280;37112;45.892;-123.962;2023-06-04T11:00:29;102346.70;;;9.72;77.16
51067;BME280;37112;45.892;-123.962;2023-06-04T11:02:58;102347.39;;;9.73;77.05
51067;BME280;37112;45.892;-123.962;2023-06-04T11:05:35;102348.67;;;9.71;76.98
51067;BME280;37112;45.892;-123.962;2023-06-04T11:08:08;102351.56;;;9.70;77.14
51067;BME280;37112;45.892;-123.962;2023-06-04T11:10:41;102355.98;;;9.71;77.37
51067;BME280;37112;45.892;-123.962;2023-06-04T11:13:13;102349.36;;;9.72;77.69
51067;BME280;37112;45.892;-123.962;2023-06-04T11:15:46;102350.59;;;9.77;78.03
51067;BME280;37112;45.892;-123.962;2023-06-04T11:18:12;102349.39;;;9.81;78.41
51067;BME280;37112;45.892;-123.962;2023-06-04T11:20:43;102356.77;;;9.87;78.49
51067;BME280;37112;45.892;-123.962;2023-06-04T11:23:11;102352.54;;;9.91;78.63
51067;BME280;37112;45.892;-123.962;2023-06-04T11:25:43;102350.44;;;9.95;78.50
51067;BME280;37112;45.892;-123.962;2023-06-04T11:28:17;102354.27;;;9.97;78.43
51067;BME280;37112;45.892;-123.962;2023-06-04T11:33:44;102351.48;;;10.00;78.64
51067;BME280;37112;45.892;-123.962;2023-06-04T11:36:24;102349.09;;;10.02;78.53
51067;BME280;37112;45.892;-123.962;2023-06-04T11:38:59;102350.09;;;10.04;78.57
51067;BME280;37112;45.892;-123.962;2023-06-04T11:41:32;102354.66;;;10.05;78.22
51067;BME280;37112;45.892;-123.962;2023-06-04T11:43:56;102353.13;;;10.03;78.30
51067;BME280;37112;45.892;-123.962;2023-06-04T11:46:27;102350.77;;;10.05;78.51
51067;BME280;37112;45.892;-123.962;2023-06-04T11:49:00;102350.73;;;10.06;78.36
51067;BME280;37112;45.892;-123.962;2023-06-04T11:51:26;102350.08;;;10.05;78.37
51067;BME280;37112;45.892;-123.962;2023-06-04T11:53:58;102351.35;;;10.03;78.23
51067;BME280;37112;45.892;-123.962;2023-06-04T11:56:23;102353.67;;;10.03;78.55
51067;BME280;37112;45.892;-123.962;2023-06-04T11:58:46;102353.46;;;10.04;78.70
51067;BME280;37112;45.892;-123.962;2023-06-04T12:01:18;102353.55;;;10.06;78.83
51067;BME280;37112;45.892;-123.962;2023-06-04T12:03:51;102353.46;;;10.09;78.86
51067;BME280;37112;45.892;-123.962;2023-06-04T12:06:23;102354.60;;;10.11;78.83
51067;BME280;37112;45.892;-123.962;2023-06-04T12:08:54;102354.70;;;10.13;79.07
51067;BME280;37112;45.892;-123.962;2023-06-04T12:11:37;102360.06;;;10.17;79.07
51067;BME280;37112;45.892;-123.962;2023-06-04T12:14:15;102362.64;;;10.18;79.10
51067;BME280;37112;45.892;-123.962;2023-06-04T12:16:57;102367.90;;;10.21;79.12
51067;BME280;37112;45.892;-123.962;2023-06-04T12:19:19;102364.84;;;10.22;79.21
51067;BME280;37112;45.892;-123.962;2023-06-04T12:22:00;102374.91;;;10.23;79.13